createdAt,value
2022-09-20T00:02:54.997Z,75.9
2022-09-20T00:08:55.421Z,76
2022-09-20T00:14:54.941Z,76.2
2022-09-20T00:20:54.831Z,76.1
2022-09-20T00:26:55.339Z,76.3
2022-09-20T00:32:54.941Z,76.5
2022-09-20T00:38:55.079Z,76.5
2022-09-20T00:44:55.024Z,76.9
2022-09-20T00:50:54.982Z,76.8
2022-09-20T00:56:55.604Z,77
2022-09-20T01:02:55.182Z,77.1
2022-09-20T01:08:55.629Z,77.6
2022-09-20T01:14:55.494Z,78
2022-09-20T01:20:55.426Z,78.3
2022-09-20T01:26:54.773Z,78.7
2022-09-20T01:32:54.838Z,79.1
2022-09-20T01:38:54.838Z,79.1
2022-09-20T01:44:55.133Z,79.1
2022-09-20T01:50:54.819Z,79
2022-09-20T01:59:54.509Z,79
2022-09-20T02:05:54.563Z,79.3
2022-09-20T02:11:54.663Z,79.6
2022-09-20T02:17:54.729Z,79.6
2022-09-20T02:23:54.831Z,79.6
2022-09-20T02:29:54.625Z,79.5
2022-09-20T02:35:54.636Z,79.5
2022-09-20T02:41:54.618Z,79.7
2022-09-20T02:47:54.596Z,79.7
2022-09-20T02:53:54.834Z,80.2
2022-09-20T02:59:54.633Z,80
2022-09-20T03:05:54.675Z,80
2022-09-20T03:11:54.593Z,80
2022-09-20T03:17:54.639Z,80
2022-09-20T03:23:54.798Z,80
2022-09-20T03:29:54.587Z,80
2022-09-20T03:35:54.740Z,80.2
2022-09-20T03:41:54.705Z,80.2
2022-09-20T03:47:54.623Z,80.3
2022-09-20T03:53:54.662Z,80.5
2022-09-20T03:59:54.540Z,80.6
2022-09-20T04:05:54.718Z,80.4
2022-09-20T04:11:54.695Z,80.4
2022-09-20T04:17:54.836Z,80.4
2022-09-20T04:23:54.726Z,80.4
2022-09-20T04:29:54.778Z,80.1
2022-09-20T04:35:54.979Z,80.2
2022-09-20T04:41:54.702Z,80.3
2022-09-20T04:47:54.661Z,80.4
2022-09-20T04:53:54.517Z,80.4
2022-09-20T04:59:54.587Z,80.4
2022-09-20T05:05:54.537Z,80.7
2022-09-20T05:11:54.524Z,80.5
2022-09-20T05:17:54.602Z,80.4
2022-09-20T05:23:54.577Z,80.2
2022-09-20T05:29:54.582Z,80
2022-09-20T05:35:54.807Z,80
2022-09-20T05:41:54.732Z,80
2022-09-20T05:47:54.612Z,79.8
2022-09-20T05:53:54.657Z,79.5
2022-09-20T05:59:54.622Z,79.5
2022-09-20T06:05:54.847Z,79.5
2022-09-20T06:11:54.612Z,79.8
2022-09-20T06:17:54.755Z,79.8
2022-09-20T06:23:54.834Z,79.8
2022-09-20T06:29:54.987Z,79.9
2022-09-20T06:35:59.078Z,79.6
2022-09-20T06:41:54.988Z,79.2
2022-09-20T06:47:54.956Z,78.7
2022-09-20T06:53:56.219Z,78.6
2022-09-20T06:59:56.001Z,78.9
2022-09-20T07:05:55.722Z,78.7
2022-09-20T07:11:55.652Z,78.5
2022-09-20T07:17:57.346Z,79
2022-09-20T07:23:57.583Z,78.2
2022-09-20T07:30:04.974Z,78.2
2022-09-20T07:35:55.888Z,77.2
2022-09-20T07:41:55.076Z,77.5
2022-09-20T07:47:56.095Z,77.2
2022-09-20T07:53:56.132Z,76
2022-09-20T07:59:56.146Z,75.5
2022-09-20T08:05:56.286Z,75.7
2022-09-20T08:11:57.030Z,74.1
2022-09-20T08:17:56.316Z,73.5
2022-09-20T08:23:55.828Z,72.3
2022-09-20T08:29:55.924Z,71.7
2022-09-20T08:35:57.795Z,69.6
2022-09-20T08:41:57.330Z,69
2022-09-20T08:47:58.453Z,69.3
2022-09-20T08:53:56.162Z,68
2022-09-20T08:59:55.549Z,66.8
2022-09-20T09:05:55.702Z,66
2022-09-20T09:11:57.055Z,64.9
2022-09-20T09:17:55.048Z,64.8
2022-09-20T09:23:55.875Z,64.7
2022-09-20T09:29:54.977Z,64.1
2022-09-20T09:35:55.454Z,64.2
2022-09-20T09:41:56.886Z,64.7
2022-09-20T09:47:56.483Z,63.7
2022-09-20T09:53:54.935Z,63.6
2022-09-20T09:59:54.688Z,61.7
2022-09-20T10:05:54.849Z,60.8
2022-09-20T10:11:54.868Z,60.8
2022-09-20T10:17:54.671Z,62
2022-09-20T10:24:03.937Z,62
2022-09-20T10:29:54.863Z,62.4
2022-09-20T10:35:54.713Z,62.4
2022-09-20T10:41:54.737Z,63.7
2022-09-20T10:47:54.818Z,61.7
2022-09-20T10:53:54.732Z,61.7
2022-09-20T10:59:54.874Z,66.3
2022-09-20T11:05:54.754Z,67
2022-09-20T11:11:54.761Z,67.3
2022-09-20T11:17:54.850Z,68.7
2022-09-20T11:23:55.167Z,65.6
2022-09-20T11:29:55.087Z,65.6
2022-09-20T11:35:55.015Z,62.3
2022-09-20T11:41:55.176Z,61.4
2022-09-20T11:47:55.981Z,60.3
2022-09-20T11:53:54.661Z,58
2022-09-20T11:59:55.259Z,58.3
2022-09-20T12:05:54.924Z,58.8
2022-09-20T12:11:55.136Z,59.8
2022-09-20T12:17:55.045Z,59.8
2022-09-20T12:23:54.628Z,59
2022-09-20T12:29:54.720Z,59
2022-09-20T12:35:54.799Z,61.3
2022-09-20T12:41:54.730Z,61.7
2022-09-20T12:47:55.764Z,60.8
2022-09-20T12:53:54.860Z,60.8
2022-09-20T12:59:55.258Z,60.5
2022-09-20T13:05:54.817Z,59.8
2022-09-20T13:11:54.972Z,59.8
2022-09-20T13:17:54.861Z,59.1
2022-09-20T13:23:55.103Z,57.6
2022-09-20T13:29:55.480Z,59.9
2022-09-20T13:35:54.899Z,54
2022-09-20T13:41:54.936Z,52.5
2022-09-20T13:47:55.345Z,49.6
2022-09-20T13:53:55.263Z,47.2
2022-09-20T13:59:55.699Z,48.8
2022-09-20T14:05:55.274Z,52
2022-09-20T14:11:55.011Z,53.7
2022-09-20T14:17:55.513Z,55.1
2022-09-20T14:23:55.198Z,57.5
2022-09-20T14:29:54.923Z,57.1
2022-09-20T14:35:55.170Z,57.7
2022-09-20T14:41:55.003Z,57.5
2022-09-20T14:47:55.252Z,56.8
2022-09-20T14:53:55.028Z,53.6
2022-09-20T14:59:55.019Z,52.9
2022-09-20T15:05:56.531Z,50.6
2022-09-20T15:11:55.927Z,52
2022-09-20T15:20:55.132Z,49.5
2022-09-20T15:26:57.242Z,48.8
2022-09-20T15:33:03.042Z,45.1
2022-09-20T15:38:55.588Z,48.6
2022-09-20T15:44:56.090Z,42.8
2022-09-20T15:50:55.039Z,41.6
2022-09-20T15:56:56.620Z,38.3
2022-09-20T16:02:55.313Z,40.8
2022-09-20T16:08:57.682Z,45.8
2022-09-20T16:14:56.463Z,48.5
2022-09-20T16:20:56.999Z,45.2
2022-09-20T16:26:55.364Z,42.8
2022-09-20T16:32:56.607Z,44.7
2022-09-20T16:38:56.181Z,47
2022-09-20T16:44:55.621Z,51.1
2022-09-20T16:50:55.880Z,52.2
2022-09-20T16:56:55.040Z,52.6
2022-09-20T17:02:55.539Z,55.2
2022-09-20T17:08:58.992Z,55.4
2022-09-20T17:14:55.937Z,57.2
2022-09-20T17:20:58.748Z,56.6
2022-09-20T17:26:55.825Z,57.3
2022-09-20T17:32:55.767Z,58.8
2022-09-20T17:38:55.263Z,60.5
2022-09-20T17:44:57.164Z,62.8
2022-09-20T17:50:57.100Z,63.1
2022-09-20T17:56:56.993Z,64
2022-09-20T18:02:59.598Z,64.4
2022-09-20T18:08:57.956Z,63.1
2022-09-20T18:14:57.009Z,63.8
2022-09-20T18:20:55.039Z,65.1
2022-09-20T18:26:55.645Z,65.9
2022-09-20T18:32:56.421Z,65.9
2022-09-20T18:38:57.461Z,65.7
2022-09-20T18:44:55.868Z,66.2
2022-09-20T18:50:55.954Z,66.1
2022-09-20T18:56:55.674Z,66.3
2022-09-20T19:02:54.850Z,66.7
2022-09-20T19:08:54.801Z,67.1
2022-09-20T19:14:55.069Z,67.5
2022-09-20T19:20:54.785Z,67.5
2022-09-20T19:26:54.733Z,68.6
2022-09-20T19:32:55.681Z,69.1
2022-09-20T19:38:55.525Z,69.7
2022-09-20T19:44:54.904Z,69.9
2022-09-20T19:50:54.808Z,69.9
2022-09-20T19:56:55.767Z,70
2022-09-20T20:02:56.543Z,70.7
2022-09-20T20:08:55.240Z,70.8
2022-09-20T20:14:54.928Z,71.6
2022-09-20T20:20:54.862Z,71.9
2022-09-20T20:26:54.863Z,71.6
2022-09-20T20:32:55.238Z,71.6
2022-09-20T20:38:55.896Z,71.9
2022-09-20T20:44:56.479Z,72
2022-09-20T20:50:55.265Z,72.5
2022-09-20T20:56:55.614Z,73
2022-09-20T21:02:55.716Z,73.4
2022-09-20T21:08:56.423Z,73.8
2022-09-20T21:14:57.612Z,73.7
2022-09-20T21:20:55.033Z,73.8
2022-09-20T21:26:56.129Z,73.8
2022-09-20T21:32:55.239Z,74.1
2022-09-20T21:38:56.592Z,74.2
2022-09-20T21:44:57.173Z,74.2
2022-09-20T21:50:55.254Z,74.6
2022-09-20T21:56:55.323Z,74.7
2022-09-20T22:02:54.989Z,74.7
2022-09-20T22:08:55.212Z,74.7
2022-09-20T22:14:56.581Z,74.5
2022-09-20T22:20:55.793Z,74.6
2022-09-20T22:26:55.358Z,74.5
2022-09-20T22:32:55.500Z,74.8
2022-09-20T22:38:55.174Z,74.8
2022-09-20T22:44:57.128Z,75
2022-09-20T22:50:55.241Z,75.5
2022-09-20T22:56:55.830Z,76
2022-09-20T23:02:55.699Z,76.5
2022-09-20T23:08:58.094Z,76.8
2022-09-20T23:14:56.832Z,76.6
2022-09-20T23:20:56.428Z,76.7
2022-09-20T23:26:56.235Z,76.8
2022-09-20T23:32:57.909Z,76.3
2022-09-20T23:38:56.832Z,76.4
2022-09-20T23:44:58.654Z,76.5
2022-09-20T23:50:57.390Z,76.5
2022-09-20T23:56:57.602Z,76.3
